Lytton, British Columbia

12:11 PM PDT on August 23, 2014 (GMT -0700)
Lytton | Change Station
CLOSE
Current Station
Airport
Location: Lytton,
Elevation: 751 ft
Nearby Weather Stations

Elev 751 ft 50.22 °N, 121.58 °W | Updated 11 minutes ago

Clear
Clear
75 °F
Feels Like 75 °F
N
2
Wind Variable Wind from Variable

Today
High -- | Low -- °F
--% Chance of Precip.
Yesterday
High -- | Low -- °F
Precip. -- in
6:07 AM 8:09 PM
Waning Crescent, 3% visible
Pressure 30.12 in
Visibility 9.0 miles
Clouds Clear
Dew Point 41 °F
Humidity 29%
Rainfall 0.00 in
Snow Depth Not available.
UV 7 out of 12
Pollen Not available.
Air Quality Not available.
Flu Activity Not available.
METAR CWLY 231900Z AUTO VRB02KT 9SM CLR 24/05 A3012 RMK SLP199 DENSITY ALT 1700FT

More Conditions Fewer Conditions

Pressure 30.12 in
Visibility 9.0 miles
Clouds Clear
Dew Point 41 °F
Humidity 29%
Rainfall 0.00 in
Snow Depth Not available.
UV 7 out of 12
Pollen Not available.
Air Quality Not available.
Flu Activity Not available.
METAR CWLY 231900Z AUTO VRB02KT 9SM CLR 24/05 A3012 RMK SLP199 DENSITY ALT 1700FT

More Conditions Fewer Conditions

10-Day Weather Forecast

Almanac

Astronomy

Aug. 23, 2014 Rise Set
Actual Time 6:07 AM PDT 8:09 PM PDT
Civil Twilight 5:32 AM PDT 8:43 PM PDT
Nautical Twilight 4:49 AM PDT 9:27 PM PDT
Astronomical Twilight 3:59 AM PDT 10:15 PM PDT
Moon 4:24 AM PDT 6:57 PM PDT
Length of Visible Light 15h 11m
Length of Day
14h 01m
Tomorrow will be 3m 33s shorter.
Waning Crescent, 3% of the Moon is Illuminated
Today
Waning Crescent
Aug 25
New
Sep 2
First Quarter
Sep 8
Full
Sep 15
Last Quarter

Today's Extremes

Country Highs Country Lows

Community

WunderPhotos

Upload Photos

1,746,585 photos uploaded!

WunderBlogs® & News

Nearby

Snow Depth

Not available.

Earthquake Activity

City Distance Mag. Time & Date
No recent earthquake activity has been reported nearby.
Minimum magnitude displayed is 2.5.

Coastal Water Temperatures

Place Temperature
No Stations Reporting

Nearby Weather Stations